Map

Track Data

SID SEASON NUMBER BASIN SUBBASIN NAME ISO_TIME NATURE LAT LON WMO_WIND WMO_PRES WMO_AGENCY TRACK_TYPE DIST2LAND LANDFALL IFLAG USA_AGENCY USA_ATCF_ID USA_LAT USA_LON USA_RECORD USA_STATUS USA_WIND USA_PRES USA_SSHS USA_R34_NE USA_R34_SE USA_R34_SW USA_R34_NW USA_R50_NE USA_R50_SE USA_R50_SW USA_R50_NW USA_R64_NE USA_R64_SE USA_R64_SW USA_R64_NW USA_POCI USA_ROCI USA_RMW USA_EYE TOKYO_LAT TOKYO_LON TOKYO_GRADE TOKYO_WIND TOKYO_PRES TOKYO_R50_DIR TOKYO_R50_LONG TOKYO_R50_SHORT TOKYO_R30_DIR TOKYO_R30_LONG TOKYO_R30_SHORT TOKYO_LAND CMA_LAT CMA_LON CMA_CAT CMA_WIND CMA_PRES HKO_LAT HKO_LON HKO_CAT HKO_WIND HKO_PRES NEWDELHI_LAT NEWDELHI_LON NEWDELHI_GRADE NEWDELHI_WIND NEWDELHI_PRES NEWDELHI_CI NEWDELHI_DP NEWDELHI_POCI REUNION_LAT REUNION_LON REUNION_TYPE REUNION_WIND REUNION_PRES REUNION_TNUM REUNION_CI REUNION_RMW REUNION_R34_NE REUNION_R34_SE REUNION_R34_SW REUNION_R34_NW REUNION_R50_NE REUNION_R50_SE REUNION_R50_SW REUNION_R50_NW REUNION_R64_NE REUNION_R64_SE REUNION_R64_SW REUNION_R64_NW BOM_LAT BOM_LON BOM_TYPE BOM_WIND BOM_PRES BOM_TNUM BOM_CI BOM_RMW BOM_R34_NE BOM_R34_SE BOM_R34_SW BOM_R34_NW BOM_R50_NE BOM_R50_SE BOM_R50_SW BOM_R50_NW BOM_R64_NE BOM_R64_SE BOM_R64_SW BOM_R64_NW BOM_ROCI BOM_POCI BOM_EYE BOM_POS_METHOD BOM_PRES_METHOD NADI_LAT NADI_LON NADI_CAT NADI_WIND NADI_PRES WELLINGTON_LAT WELLINGTON_LON WELLINGTON_WIND WELLINGTON_PRES DS824_LAT DS824_LON DS824_STAGE DS824_WIND DS824_PRES TD9636_LAT TD9636_LON TD9636_STAGE TD9636_WIND TD9636_PRES TD9635_LAT TD9635_LON TD9635_WIND TD9635_PRES TD9635_ROCI NEUMANN_LAT NEUMANN_LON NEUMANN_CLASS NEUMANN_WIND NEUMANN_PRES MLC_LAT MLC_LON MLC_CLASS MLC_WIND MLC_PRES USA_GUST BOM_GUST BOM_GUST_PER REUNION_GUST REUNION_GUST_PER USA_SEAHGT USA_SEARAD_NE USA_SEARAD_SE USA_SEARAD_SW USA_SEARAD_NW STORM_SPEED STORM_DIR
1948157N17063 1948 35 NI AS NOT_NAMED 1948-06-04 18:00:00 TS 17.4000 63.0000 main 577 567 O________O____ jtwc_io IO061948 17.4000 63.0000 -1 17.4000 63.0000 TC 4 3
1948157N17063 1948 35 NI AS NOT_NAMED 1948-06-04 21:00:00 TS 17.5975 63.0000 main 567 555 P________P____ IO061948 17.5975 63.0000 -1 17.5975 63.0000 TC 4 0
1948157N17063 1948 35 NI AS NOT_NAMED 1948-06-05 00:00:00 TS 17.8000 63.0000 main 555 542 O________O____ jtwc_io IO061948 17.8000 63.0000 -1 17.8000 63.0000 TC 35 4 1
1948157N17063 1948 35 NI AS NOT_NAMED 1948-06-05 03:00:00 TS 18.0067 63.0000 main 542 527 P________PO___ IO061948 18.0075 63.0000 -1 18.0075 63.0000 TC 35 18.0000 63.0000 2 4 4
1948157N17063 1948 35 NI AS NOT_NAMED 1948-06-05 06:00:00 TS 18.1947 63.0000 main 527 519 O________OP___ jtwc_io IO061948 18.2000 63.0000 -1 18.2000 63.0000 TC 35 18.1734 63.0000 2 3 0
1948157N17063 1948 35 NI AS NOT_NAMED 1948-06-05 09:00:00 TS 18.3493 63.0000 main 519 504 P________PP___ IO061948 18.3500 63.0000 -1 18.3500 63.0000 TC 35 18.3475 63.0000 2 3 5
1948157N17063 1948 35 NI AS NOT_NAMED 1948-06-05 12:00:00 TS 18.5076 63.0000 main 504 490 O________OP___ jtwc_io IO061948 18.5000 63.0000 -1 18.5000 63.0000 TC 35 18.5228 63.0000 2 3 0
1948157N17063 1948 35 NI AS NOT_NAMED 1948-06-05 15:00:00 TS 18.6950 63.0000 main 490 476 P________PO___ IO061948 18.6925 63.0000 -1 18.6925 63.0000 TC 35 18.7000 63.0000 3 4 0
1948157N17063 1948 35 NI AS NOT_NAMED 1948-06-05 18:00:00 TS 18.8935 63.0000 main 476 463 O________OP___ jtwc_io IO061948 18.9000 63.0000 -1 18.9000 63.0000 TC 35 18.8806 63.0000 3 4 3
1948157N17063 1948 35 NI AS NOT_NAMED 1948-06-05 21:00:00 TS 19.0900 63.0000 main 463 451 P________PP___ IO061948 19.1000 63.0000 -1 19.1000 63.0000 TC 35 19.0700 63.0000 3 4 0
1948157N17063 1948 35 NI AS NOT_NAMED 1948-06-06 00:00:00 TS 19.2915 63.0000 main 451 440 O________OP___ jtwc_io IO061948 19.3000 63.0000 -1 19.3000 63.0000 TC 35 19.2744 63.0000 3 4 0
1948157N17063 1948 35 NI AS NOT_NAMED 1948-06-06 03:00:00 TS 19.4900 63.0000 main 440 429 P________PO___ IO061948 19.4850 63.0000 -1 19.4850 63.0000 TC 35 19.5000 63.0000 3 4 1
1948157N17063 1948 35 NI AS NOT_NAMED 1948-06-06 06:00:00 TS 19.7138 63.0000 main 429 411 O________OP___ jtwc_io IO061948 19.7000 63.0000 -1 19.7000 63.0000 TC 35 19.7413 63.0000 3 5 2
1948157N17063 1948 35 NI AS NOT_NAMED 1948-06-06 09:00:00 TS 19.9917 63.0000 main 411 393 P________PP___ IO061948 19.9850 63.0000 -1 19.9850 63.0000 TC 35 20.0050 63.0000 3 6 0
1948157N17063 1948 35 NI AS NOT_NAMED 1948-06-06 12:00:00 TS 20.2971 63.0000 main 393 376 O________OP___ jtwc_io IO061948 20.3000 63.0000 -1 20.3000 63.0000 TC 35 20.2913 63.0000 3 6 2
1948157N17063 1948 35 NI AS NOT_NAMED 1948-06-06 15:00:00 TS 20.5900 63.0000 main 376 361 P________PO___ IO061948 20.5850 63.0000 -1 20.5850 63.0000 TC 35 20.6000 63.0000 3 6 2
1948157N17063 1948 35 NI AS NOT_NAMED 1948-06-06 18:00:00 TS 20.9095 63.0013 main 361 345 O________OP___ jtwc_io IO061948 20.9000 63.0000 -1 20.9000 63.0000 TC 35 20.9284 63.0040 3 7 0
1948157N17063 1948 35 NI AS NOT_NAMED 1948-06-06 21:00:00 TS 21.2925 63.0025 main 345 334 P________PP___ IO061948 21.3000 63.0000 -1 21.3000 63.0000 TC 50 21.2775 63.0074 3 8 2
1948157N17063 1948 35 NI AS NOT_NAMED 1948-06-07 00:00:00 TS 21.6793 63.0024 main 334 330 O________OP___ jtwc_io IO061948 21.7000 63.0000 -1 21.7000 63.0000 TC 65 21.6378 63.0071 3 7 0
1948157N17063 1948 35 NI AS NOT_NAMED 1948-06-07 03:00:00 TS 22.0050 63.0050 main 330 318 P________PO___ IO061948 22.0075 63.0074 -1 22.0075 63.0074 TC 65 22.0000 63.0000 4 6 0
1948157N17063 1948 35 NI AS NOT_NAMED 1948-06-07 06:00:00 TS 22.3140 62.9927 main 318 285 O________OP___ jtwc_io IO061948 22.3000 63.0000 -1 22.3000 63.0000 TC 65 22.3419 62.9782 4 7 355
1948157N17063 1948 35 NI AS NOT_NAMED 1948-06-07 09:00:00 TS 22.6517 62.9501 main 275 240 P________PP___ IO061948 22.6350 62.9501 -1 22.6350 62.9501 TC 65 22.6850 62.9502 4 7 354
1948157N17063 1948 35 NI AS NOT_NAMED 1948-06-07 12:00:00 TS 23.0119 62.9073 main 240 196 O________OP___ jtwc_io IO061948 23.0000 62.9000 -1 23.0000 62.9000 TC 65 23.0356 62.9220 4 7 356
1948157N17063 1948 35 NI AS NOT_NAMED 1948-06-07 15:00:00 TS 23.3950 62.8950 main 196 153 P________PO___ IO061948 23.3925 62.8924 -1 23.3925 62.8924 TC 50 23.4000 62.9000 4 8 0
1948157N17063 1948 35 NI AS NOT_NAMED 1948-06-07 18:00:00 TS 23.8005 62.8803 main 153 112 O________OP___ jtwc_io IO061948 23.8000 62.9000 -1 23.8000 62.9000 TC 35 23.8016 62.8409 4 8 357
1948157N17063 1948 35 NI AS NOT_NAMED 1948-06-07 21:00:00 TS 24.2098 62.8556 main 112 67 P________PP___ IO061948 24.2075 62.8851 -1 24.2075 62.8851 TC 30 24.2146 62.7965 4 8 0
1948157N17063 1948 35 NI AS NOT_NAMED 1948-06-08 00:00:00 TS 24.6067 62.8679 main 67 24 O________OP___ jtwc_io IO061948 24.6000 62.9000 -1 24.6000 62.9000 TC 25 24.6202 62.8036 4 8 5
1948157N17063 1948 35 NI AS NOT_NAMED 1948-06-08 03:00:00 TS 24.9766 62.9318 main 24 0 P________PO___ IO061948 24.9649 62.9477 -1 24.9649 62.9477 TC 25 25.0000 62.9000 1 7 17
1948157N17063 1948 35 NI AS NOT_NAMED 1948-06-08 06:00:00 TS 25.3150 63.1035 main 0 0 O________OP___ jtwc_io IO061948 25.3000 63.1000 -1 25.3000 63.1000 TC 25 25.3450 63.1106 1 8 33
1948157N17063 1948 35 NI AS NOT_NAMED 1948-06-08 09:00:00 TS 25.6300 63.4080 main 0 0 P________PP___ IO061948 25.6151 63.4049 -1 25.6151 63.4049 TC 25 25.6599 63.4143 1 9 46
1948157N17063 1948 35 NI AS NOT_NAMED 1948-06-08 12:00:00 TS 25.9150 63.7953 main 0 0 O________OP___ jtwc_io IO061948 25.9000 63.8000 -1 25.9000 63.8000 TC 25 25.9449 63.7859 1 9 52
1948157N17063 1948 35 NI AS NOT_NAMED 1948-06-08 15:00:00 TS 26.1766 64.1901 main 0 0 P________PO___ IO061948 26.1649 64.1852 -1 26.1649 64.1852 TC 25 26.2000 64.2000 1 9 56
1948157N17063 1948 35 NI AS NOT_NAMED 1948-06-08 18:00:00 TS 26.4107 64.6138 main 0 0 O________OP___ jtwc_io IO061948 26.4000 64.6000 -1 26.4000 64.6000 TC 25 26.4268 64.6345 1 9 60
1948157N17063 1948 35 NI AS NOT_NAMED 1948-06-08 21:00:00 TS 26.6178 65.0592 main 0 0 P________PP___ IO061948 26.6078 65.0422 -1 26.6078 65.0422 TC 25 26.6311 65.0819 1 9 64
1948157N17063 1948 35 NI AS NOT_NAMED 1948-06-09 00:00:00 TS 26.8099 65.5192 main 0 0 O________OP___ jtwc_io IO061948 26.8000 65.5000 -1 26.8000 65.5000 TC 25 26.8198 65.5384 1 9 66
1948157N17063 1948 35 NI AS NOT_NAMED 1948-06-09 03:00:00 NR 27.0000 66.0000 main 0 __________O___ IO061948 -1 TC 27.0000 66.0000 1 9 66

About IBTrACS Database

This database is a web-friendly format of International Best Track Archive for Climate Stewardship (IBTrACS), a global best track data archive curated by NOAA dating back to 1842.

Updated: 2021-10-21